KBAZ

New Braunfels Regional Airport

New Braunfels, Texas, USA
METAR KBAZ 211751Z 15010KT 10SM FEW027 SCT031 31/22 A2994 RMK AO2 SLP129 T03110222 10317 20233 52001
Observed Flight Rules
Jun-21 @ 17:51 UTC (22 minutes ago) Visual Flight Rules
Wind Visibility Clouds
150° at 10 knots 10 miles
  • Few at 2,700' AGL
  • Scattered at 3,100' AGL
Temperatures Readings
Current 31°C / 88°F
Dewpoint 22°C / 72°F
Humidity 59%
Altimeter 29.94" Hg
Pressure 1012.9 hPa
Elevation 195
METAR KBAZ 211751Z 15010KT 10SM FEW027 SCT031 31/22 A2994 RMK AO2 SLP129 T03110222 10317 20233 52001
Observed Flight Rules
Jun-21 @ 17:51 UTC
(22 minutes ago)
VFR
Wind Visibility
150° at 10 knots 10 miles
Clouds
  • Few at 2,700' AGL
  • Scattered at 3,100' AGL
Temperature Dewpoint
31°C / 88°F 22°C / 72°F
Humidity Altimeter Pressure
59% 29.94" Hg 1012.9 hPa